Time;durP1;ratioP1;P1;durP2;ratioP2;P2;SDS_P1;SDS_P2;PMS_P1;PMS_P2;Temp;Humidity;BMP_temperature;BMP_pressure;BME280_temperature;BME280_humidity;BME280_pressure;Samples;Min_cycle;Max_cycle;Signal;HPM_P1;HPM_P2
2022/08/26 00:02:02;;;;;;;;;;;;;;;;;;4953199;28;19918;-85
2022/08/26 00:04:27;;;;;;;;;;;;;;;;;;4949533;28;19925;-83
2022/08/26 00:06:54;;;;;;;;;;;;;;;;;;4952418;28;20008;-83
2022/08/26 00:09:20;;;;;;;;;;;;;;;;;;4954014;28;19922;-84
2022/08/26 00:11:46;;;;;;;;;;;;;;;;;;4954719;28;19922;-84
2022/08/26 00:14:12;;;;;;;;;;;;;;;;;;4968197;28;19914;-83
2022/08/26 00:16:37;;;;;;;;;;;;;;;;;;4958132;28;20268;-82
2022/08/26 00:19:03;;;;;;;;;;;;;;;;;;4972534;28;19918;-83
2022/08/26 00:21:28;;;;;;;;;;;;;;;;;;4973199;28;20456;-83
2022/08/26 00:23:53;;;;;;;;;;;;;;;;;;4989382;28;19910;-82
2022/08/26 00:26:18;;;;;;;;;;;;;;;;;;4992910;28;20406;-84
2022/08/26 00:28:44;;;;;;;;;;;;;;;;;;4990756;28;20399;-84
2022/08/26 00:31:09;;;;;;;;;;;;;;;;;;4976264;28;19953;-85
2022/08/26 00:33:37;;;;;;;;;;;;;;;;;;4977619;28;19914;-84
2022/08/26 00:36:02;;;;;;;;;;;;;;;;;;4981274;28;20375;-84
2022/08/26 00:38:27;;;;;;;;;;;;;;;;;;4992690;28;19962;-84
2022/08/26 00:40:52;;;;;;;;;;;;;;;;;;4979437;28;19918;-84
2022/08/26 00:43:18;;;;;;;;;;;;;;;;;;4977743;28;19964;-84
2022/08/26 00:45:43;;;;;;;;;;;;;;;;;;4967024;28;19917;-83
2022/08/26 00:48:08;;;;;;;;;;;;;;;;;;4980636;28;20404;-84
2022/08/26 00:50:35;;;;;;;;;;;;;;;;;;4992018;28;19914;-83
2022/08/26 00:53:01;;;;;;;;;;;;;;;;;;5011879;28;19932;-84
2022/08/26 00:55:26;;;;;;;;;;;;;;;;;;4996363;28;20373;-84
2022/08/26 00:57:51;;;;;;;;;;;;;;;;;;4995684;28;19917;-86
2022/08/26 01:00:16;;;;;;;;;;;;;;;;;;4983678;28;20311;-85
2022/08/26 01:02:41;;;;;;;;;;;;;;;;;;4993036;28;20268;-85
2022/08/26 01:05:06;;;;;;;;;;;;;;;;;;4976134;28;20007;-85
2022/08/26 01:07:33;;;;;;;;;;;;;;;;;;4977224;28;20404;-83
2022/08/26 01:09:58;;;;;;;;;;;;;;;;;;4973044;28;20361;-85
2022/08/26 01:12:24;;;;;;;;;;;;;;;;;;4992456;28;20017;-84
2022/08/26 01:14:49;;;;;;;;;;;;;;;;;;4973934;28;20356;-84
2022/08/26 01:17:14;;;;;;;;;;;;;;;;;;4977138;28;19922;-84
2022/08/26 01:19:39;;;;;;;;;;;;;;;;;;4975884;28;20272;-83
2022/08/26 01:22:04;;;;;;;;;;;;;;;;;;4972314;28;20372;-83
2022/08/26 01:24:29;;;;;;;;;;;;;;;;;;4972511;28;19914;-83
2022/08/26 01:26:54;;;;;;;;;;;;;;;;;;4958470;28;19921;-83
2022/08/26 01:29:20;;;;;;;;;;;;;;;;;;4992567;28;19910;-83
2022/08/26 01:31:45;;;;;;;;;;;;;;;;;;4989510;28;20347;-83
2022/08/26 01:34:20;;;;;;;;;;;;;;;;;;4973633;28;19999;-84
2022/08/26 01:36:45;;;;;;;;;;;;;;;;;;4993100;28;19918;-84
2022/08/26 01:39:10;;;;;;;;;;;;;;;;;;4972727;28;19921;-84
2022/08/26 01:41:36;;;;;;;;;;;;;;;;;;4977310;28;19933;-82
2022/08/26 01:44:07;;;;;;;;;;;;;;;;;;4970681;28;19949;-84
2022/08/26 01:46:33;;;;;;;;;;;;;;;;;;4974741;28;19939;-84
2022/08/26 01:48:58;;;;;;;;;;;;;;;;;;4994577;28;19916;-84
2022/08/26 01:51:23;;;;;;;;;;;;;;;;;;4973229;28;19910;-86
2022/08/26 01:53:49;;;;;;;;;;;;;;;;;;4974909;28;19961;-84
2022/08/26 01:56:14;;;;;;;;;;;;;;;;;;4974200;28;20361;-84
2022/08/26 01:58:40;;;;;;;;;;;;;;;;;;4976596;28;19967;-83
2022/08/26 02:01:05;;;;;;;;;;;;;;;;;;4971285;28;20313;-83
2022/08/26 02:03:30;;;;;;;;;;;;;;;;;;4961596;28;19913;-82
2022/08/26 02:05:55;;;;;;;;;;;;;;;;;;4992096;28;20382;-84
2022/08/26 02:08:20;;;;;;;;;;;;;;;;;;4976011;28;19960;-83
2022/08/26 02:10:46;;;;;;;;;;;;;;;;;;4974273;28;19917;-83
2022/08/26 02:13:11;;;;;;;;;;;;;;;;;;4975312;28;19918;-84
2022/08/26 02:15:36;;;;;;;;;;;;;;;;;;4969212;28;20016;-83
2022/08/26 02:18:01;;;;;;;;;;;;;;;;;;4973492;28;19917;-84
2022/08/26 02:20:26;;;;;;;;;;;;;;;;;;4992107;28;19918;-84
2022/08/26 02:22:51;;;;;;;;;;;;;;;;;;4973275;28;20381;-84
2022/08/26 02:25:17;;;;;;;;;;;;;;;;;;4974053;28;19968;-83
2022/08/26 02:27:42;;;;;;;;;;;;;;;;;;4976933;28;19921;-83
2022/08/26 02:30:07;;;;;;;;;;;;;;;;;;4971151;28;20376;-83
2022/08/26 02:32:33;;;;;;;;;;;;;;;;;;4992219;28;20296;-82
2022/08/26 02:34:58;;;;;;;;;;;;;;;;;;4991350;28;19910;-83
2022/08/26 02:37:23;;;;;;;;;;;;;;;;;;4973208;28;19921;-83
2022/08/26 02:39:48;;;;;;;;;;;;;;;;;;4976075;28;19913;-82
2022/08/26 02:42:13;;;;;;;;;;;;;;;;;;4974341;28;19910;-83
2022/08/26 02:44:40;;;;;;;;;;;;;;;;;;4995537;28;19960;-84
2022/08/26 02:47:05;;;;;;;;;;;;;;;;;;4988455;28;19914;-83
2022/08/26 02:49:30;;;;;;;;;;;;;;;;;;4991212;28;19946;-81
2022/08/26 02:51:55;;;;;;;;;;;;;;;;;;4988630;28;19921;-83
2022/08/26 02:54:20;;;;;;;;;;;;;;;;;;4987522;28;20399;-82
2022/08/26 02:56:46;;;;;;;;;;;;;;;;;;4987800;28;19914;-82
2022/08/26 02:59:11;;;;;;;;;;;;;;;;;;4972169;28;19913;-82
2022/08/26 03:01:36;;;;;;;;;;;;;;;;;;4974819;28;19913;-84
2022/08/26 03:04:01;;;;;;;;;;;;;;;;;;4972432;28;19941;-82
2022/08/26 03:06:26;;;;;;;;;;;;;;;;;;4970792;28;20453;-83
2022/08/26 03:08:52;;;;;;;;;;;;;;;;;;4990720;28;19952;-81
2022/08/26 03:11:17;;;;;;;;;;;;;;;;;;4974224;28;20368;-82
2022/08/26 03:13:42;;;;;;;;;;;;;;;;;;4972856;28;20044;-82
2022/08/26 03:16:07;;;;;;;;;;;;;;;;;;4971727;28;19918;-83
2022/08/26 03:18:33;;;;;;;;;;;;;;;;;;4967744;28;19937;-82
2022/08/26 03:20:58;;;;;;;;;;;;;;;;;;4975071;28;20410;-84
2022/08/26 03:23:24;;;;;;;;;;;;;;;;;;4973932;28;19914;-82
2022/08/26 03:25:49;;;;;;;;;;;;;;;;;;4973320;28;19921;-84
2022/08/26 03:28:14;;;;;;;;;;;;;;;;;;4971574;28;19990;-82
2022/08/26 03:30:40;;;;;;;;;;;;;;;;;;4990577;28;20237;-83
2022/08/26 03:33:05;;;;;;;;;;;;;;;;;;4964423;28;19997;-83
2022/08/26 03:35:30;;;;;;;;;;;;;;;;;;4970747;28;19913;-83
2022/08/26 03:37:55;;;;;;;;;;;;;;;;;;4973146;28;19957;-82
2022/08/26 03:40:20;;;;;;;;;;;;;;;;;;4972975;28;19914;-82
2022/08/26 03:42:46;;;;;;;;;;;;;;;;;;4992551;28;19910;-83
2022/08/26 03:45:11;;;;;;;;;;;;;;;;;;4973549;28;19921;-83
2022/08/26 03:47:36;;;;;;;;;;;;;;;;;;4969436;28;19918;-83
2022/08/26 03:50:02;;;;;;;;;;;;;;;;;;4974638;28;20001;-82
2022/08/26 03:52:27;;;;;;;;;;;;;;;;;;4972792;28;19918;-82
2022/08/26 03:54:53;;;;;;;;;;;;;;;;;;4975523;28;19928;-84
2022/08/26 03:57:18;;;;;;;;;;;;;;;;;;4969448;28;19941;-84
2022/08/26 03:59:44;;;;;;;;;;;;;;;;;;4975119;28;20368;-82
2022/08/26 04:02:09;;;;;;;;;;;;;;;;;;4974155;28;20004;-84
2022/08/26 04:04:34;;;;;;;;;;;;;;;;;;4974186;28;19914;-84
2022/08/26 04:06:59;;;;;;;;;;;;;;;;;;4974421;28;20236;-82
2022/08/26 04:09:24;;;;;;;;;;;;;;;;;;4982971;28;19915;-83
2022/08/26 04:11:50;;;;;;;;;;;;;;;;;;4959724;28;19914;-83
2022/08/26 04:14:15;;;;;;;;;;;;;;;;;;4992359;28;20313;-83
2022/08/26 04:16:40;;;;;;;;;;;;;;;;;;4974433;28;19920;-84
2022/08/26 04:19:05;;;;;;;;;;;;;;;;;;4975928;28;20451;-83
2022/08/26 04:21:30;;;;;;;;;;;;;;;;;;4977338;28;19910;-83
2022/08/26 04:23:56;;;;;;;;;;;;;;;;;;4979300;28;19949;-83
2022/08/26 04:26:21;;;;;;;;;;;;;;;;;;4991686;28;20285;-85
2022/08/26 04:28:46;;;;;;;;;;;;;;;;;;4975334;28;19917;-83
2022/08/26 04:31:11;;;;;;;;;;;;;;;;;;4976934;28;19916;-83
2022/08/26 04:33:36;;;;;;;;;;;;;;;;;;4977758;28;19925;-83
2022/08/26 04:36:02;;;;;;;;;;;;;;;;;;4973825;28;19925;-84
2022/08/26 04:38:27;;;;;;;;;;;;;;;;;;4972315;28;19918;-83
2022/08/26 04:40:52;;;;;;;;;;;;;;;;;;4974582;28;19920;-83
2022/08/26 04:43:17;;;;;;;;;;;;;;;;;;4976877;28;20008;-84
2022/08/26 04:45:42;;;;;;;;;;;;;;;;;;4990724;28;19918;-85
2022/08/26 04:48:08;;;;;;;;;;;;;;;;;;4970083;28;20302;-83
2022/08/26 04:50:33;;;;;;;;;;;;;;;;;;4972767;28;19918;-82
2022/08/26 04:52:58;;;;;;;;;;;;;;;;;;4977587;28;19913;-82
2022/08/26 04:55:24;;;;;;;;;;;;;;;;;;4993473;28;20396;-83
2022/08/26 04:57:49;;;;;;;;;;;;;;;;;;4992642;28;20372;-83
2022/08/26 05:00:21;;;;;;;;;;;;;;;;;;4974599;28;20312;-83
2022/08/26 05:02:47;;;;;;;;;;;;;;;;;;4971094;28;19914;-84
2022/08/26 05:05:12;;;;;;;;;;;;;;;;;;4973772;28;20428;-82
2022/08/26 05:07:38;;;;;;;;;;;;;;;;;;4969581;28;20462;-82
2022/08/26 05:10:03;;;;;;;;;;;;;;;;;;4968803;28;19922;-83
2022/08/26 05:12:30;;;;;;;;;;;;;;;;;;4984918;28;20016;-86
2022/08/26 05:14:55;;;;;;;;;;;;;;;;;;4969766;28;20371;-84
2022/08/26 05:17:21;;;;;;;;;;;;;;;;;;4969840;28;19924;-85
2022/08/26 05:19:47;;;;;;;;;;;;;;;;;;4967339;28;19922;-84
2022/08/26 05:24:56;;;;;;;;;;;;;;;;;;4988797;28;19929;-86
2022/08/26 05:27:21;;;;;;;;;;;;;;;;;;4971304;28;19914;-84
2022/08/26 05:29:55;;;;;;;;;;;;;;;;;;4988337;28;19922;-87
2022/08/26 05:32:20;;;;;;;;;;;;;;;;;;4976104;28;19929;-91
2022/08/26 05:34:45;;;;;;;;;;;;;;;;;;4976608;28;20398;-87
2022/08/26 05:37:10;;;;;;;;;;;;;;;;;;4976041;28;19921;-82
2022/08/26 05:39:42;;;;;;;;;;;;;;;;;;4976291;28;19918;-88
2022/08/26 05:42:07;;;;;;;;;;;;;;;;;;4975409;28;19917;-86
2022/08/26 05:44:32;;;;;;;;;;;;;;;;;;4972088;28;19918;-84
2022/08/26 05:46:57;;;;;;;;;;;;;;;;;;4974283;28;20005;-84
2022/08/26 05:49:22;;;;;;;;;;;;;;;;;;4986820;28;20274;-82
2022/08/26 05:51:47;;;;;;;;;;;;;;;;;;4985804;28;19918;-80
2022/08/26 05:54:13;;;;;;;;;;;;;;;;;;4984727;28;19914;-82
2022/08/26 05:56:38;;;;;;;;;;;;;;;;;;4970511;28;19920;-83
2022/08/26 05:59:03;;;;;;;;;;;;;;;;;;4962718;28;20344;-84
2022/08/26 06:01:28;;;;;;;;;;;;;;;;;;4976163;28;19953;-83
2022/08/26 06:03:53;;;;;;;;;;;;;;;;;;4975257;28;20427;-83
2022/08/26 06:06:18;;;;;;;;;;;;;;;;;;4973484;28;19921;-82
2022/08/26 06:08:44;;;;;;;;;;;;;;;;;;4971091;28;20426;-82
2022/08/26 06:11:09;;;;;;;;;;;;;;;;;;4992809;28;19921;-83
2022/08/26 06:13:34;;;;;;;;;;;;;;;;;;4973837;28;19926;-82
2022/08/26 06:15:59;;;;;;;;;;;;;;;;;;4975544;28;19914;-82
2022/08/26 06:18:26;;;;;;;;;;;;;;;;;;4968203;28;20016;-82
2022/08/26 06:20:51;;;;;;;;;;;;;;;;;;4971389;28;19914;-83
2022/08/26 06:26:01;;;;;;;;;;;;;;;;;;4992527;28;20049;-84
2022/08/26 06:28:26;;;;;;;;;;;;;;;;;;4988692;28;20000;-86
2022/08/26 06:30:53;;;;;;;;;;;;;;;;;;4992518;28;19921;-86
2022/08/26 06:33:18;;;;;;;;;;;;;;;;;;4990080;28;19937;-87
2022/08/26 06:35:45;;;;;;;;;;;;;;;;;;4976944;28;19909;-86
2022/08/26 06:38:10;;;;;;;;;;;;;;;;;;4988866;28;19924;-85
2022/08/26 06:40:36;;;;;;;;;;;;;;;;;;4972868;28;19914;-85
2022/08/26 06:43:01;;;;;;;;;;;;;;;;;;4990240;28;19949;-85
2022/08/26 06:45:26;;;;;;;;;;;;;;;;;;4971534;28;19914;-86
2022/08/26 06:47:51;;;;;;;;;;;;;;;;;;4969019;28;20463;-85
2022/08/26 06:50:16;;;;;;;;;;;;;;;;;;4975589;28;20344;-85
2022/08/26 06:52:42;;;;;;;;;;;;;;;;;;4990579;28;19914;-83
2022/08/26 06:55:07;;;;;;;;;;;;;;;;;;4970559;28;19914;-87
2022/08/26 06:57:33;;;;;;;;;;;;;;;;;;4969179;28;19920;-85
2022/08/26 06:59:58;;;;;;;;;;;;;;;;;;4974668;28;19937;-85
2022/08/26 07:02:23;;;;;;;;;;;;;;;;;;4973598;28;20347;-85
2022/08/26 07:04:48;;;;;;;;;;;;;;;;;;4971484;28;19957;-86
2022/08/26 07:07:14;;;;;;;;;;;;;;;;;;4973743;28;19921;-87
2022/08/26 07:09:39;;;;;;;;;;;;;;;;;;4971887;28;20473;-85
2022/08/26 07:12:05;;;;;;;;;;;;;;;;;;4974833;28;20069;-84
2022/08/26 07:14:30;;;;;;;;;;;;;;;;;;4991194;28;19925;-85
2022/08/26 07:16:55;;;;;;;;;;;;;;;;;;4976005;28;20453;-85
2022/08/26 07:19:24;;;;;;;;;;;;;;;;;;4975115;28;19963;-84
2022/08/26 07:21:49;;;;;;;;;;;;;;;;;;4975794;28;20493;-85
2022/08/26 07:24:14;;;;;;;;;;;;;;;;;;4974540;28;20012;-84
2022/08/26 07:26:39;;;;;;;;;;;;;;;;;;4972484;28;19944;-85
2022/08/26 07:29:15;;;;;;;;;;;;;;;;;;4974198;28;19913;-85
2022/08/26 07:31:44;;;;;;;;;;;;;;;;;;4975180;28;19917;-84
2022/08/26 07:34:09;;;;;;;;;;;;;;;;;;4975853;28;20391;-85
2022/08/26 07:36:37;;;;;;;;;;;;;;;;;;4975768;28;19910;-85
2022/08/26 07:39:16;;;;;;;;;;;;;;;;;;;;;
2022/08/26 07:44:30;;;;;;;;;;;;;;;;;;4991828;28;20377;-85
2022/08/26 07:47:04;;;;;;;;;;;;;;;;;;4990621;28;19993;-86
2022/08/26 07:49:30;;;;;;;;;;;;;;;;;;4974260;28;19918;-85
2022/08/26 07:51:55;;;;;;;;;;;;;;;;;;4975378;28;19914;-84
2022/08/26 07:54:28;;;;;;;;;;;;;;;;;;4975203;28;20368;-85
2022/08/26 08:02:54;;;;;;;;;;;;;;;;;;4951641;29;20054;-84
2022/08/26 08:05:20;;;;;;;;;;;;;;;;;;4952306;29;20058;-85
2022/08/26 08:07:45;;;;;;;;;;;;;;;;;;4935588;29;20337;-85
2022/08/26 08:10:10;;;;;;;;;;;;;;;;;;4945891;29;19914;-84
2022/08/26 08:12:35;;;;;;;;;;;;;;;;;;4932802;29;19911;-84
2022/08/26 08:17:44;;;;;;;;;;;;;;;;;;4941300;29;19970;-85
2022/08/26 08:20:10;;;;;;;;;;;;;;;;;;4924209;29;20274;-85
2022/08/26 08:25:23;;;;;;;;;;;;;;;;;;4933319;29;19953;-84
2022/08/26 08:28:04;;;;;;;;;;;;;;;;;;4921216;29;19958;-84
2022/08/26 08:30:40;;;;;;;;;;;;;;;;;;4936286;29;19918;-85
2022/08/26 08:33:21;;;;;;;;;;;;;;;;;;4955632;28;19925;-83
2022/08/26 08:35:53;;;;;;;;;;;;;;;;;;4988965;28;19976;-84
2022/08/26 08:38:28;;;;;;;;;;;;;;;;;;4985875;28;19952;-85
2022/08/26 08:41:12;;;;;;;;;;;;;;;;;;4984851;28;19918;-84
2022/08/26 08:46:35;;;;;;;;;;;;;;;;;;4974649;28;19957;-85
2022/08/26 08:49:02;;;;;;;;;;;;;;;;;;4955462;28;20281;-84
2022/08/26 08:56:56;;;;;;;;;;;;;;;;;;4957125;29;19977;-85
2022/08/26 08:59:35;;;;;;;;;;;;;;;;;;4957883;28;19946;-84
2022/08/26 09:02:01;;;;;;;;;;;;;;;;;;4959695;28;19918;-84
2022/08/26 09:04:31;;;;;;;;;;;;;;;;;;4975926;28;19910;-83
2022/08/26 09:06:57;;;;;;;;;;;;;;;;;;4958407;28;19910;-84
2022/08/26 09:12:23;;;;;;;;;;;;;;;;;;4987836;28;20260;-84
2022/08/26 09:14:48;;;;;;;;;;;;;;;;;;4990482;23;19933;-65
2022/08/26 09:17:13;;;;;;;;;;;;;;;;;;5015222;28;20328;-65
2022/08/26 09:19:38;;;;;;;;;;;;;;;;;;4999290;28;19913;-64
2022/08/26 09:22:03;;;;;;;;;;;;;;;;;;5028546;28;19914;-64
2022/08/26 09:24:29;;;;;;;;;;;;;;;;;;5014446;28;19913;-64
2022/08/26 09:26:56;;;;;;;;;;;;;;;;;;4997232;28;20008;-64
2022/08/26 09:29:21;;;;;;;;;;;;;;;;;;5017206;28;19996;-64
2022/08/26 09:31:46;;;;;;;;;;;;;;;;;;5007408;28;20432;-65
2022/08/26 09:34:12;;;;;;;;;;;;;;;;;;5024536;28;20289;-64
2022/08/26 09:36:37;;;;;;;;;;;;;;;;;;5019825;28;19931;-64
2022/08/26 09:39:02;;;;;;;;;;;;;;;;;;5013201;28;19909;-63
2022/08/26 09:41:30;;;;;;;;;;;;;;;;;;4992465;28;20559;-64
2022/08/26 09:43:55;;;;;;;;;;;;;;;;;;5000304;28;19922;-64
2022/08/26 09:46:21;;;;;;;;;;;;;;;;;;5013963;28;20324;-64
2022/08/26 09:48:46;;;;;;;;;;;;;;;;;;4996773;28;19910;-65
2022/08/26 09:51:11;;;;;;;;;;;;;;;;;;4998203;28;20412;-65
2022/08/26 09:53:38;;;;;;;;;;;;;;;;;;5014772;28;19979;-65
2022/08/26 09:56:03;;;;;;;;;;;;;;;;;;4996625;28;20065;-65
2022/08/26 09:58:28;;;;;;;;;;;;;;;;;;4992843;28;19913;-65
2022/08/26 10:00:54;;;;;;;;;;;;;;;;;;5000336;28;19913;-65
2022/08/26 10:03:19;;;;;;;;;;;;;;;;;;4996046;28;20366;-65
2022/08/26 10:05:44;;;;;;;;;;;;;;;;;;5007654;28;20029;-64
2022/08/26 10:08:09;;;;;;;;;;;;;;;;;;5013433;28;20370;-64
2022/08/26 10:10:35;;;;;;;;;;;;;;;;;;5012377;28;19920;-64
2022/08/26 10:13:01;;;;;;;;;;;;;;;;;;5013887;28;20007;-64
2022/08/26 10:15:27;;;;;;;;;;;;;;;;;;4979255;28;19921;-65
2022/08/26 10:17:52;;;;;;;;;;;;;;;;;;4976604;28;20395;-64
2022/08/26 10:20:17;;;;;;;;;;;;;;;;;;4987877;28;19914;-63
2022/08/26 10:22:42;;;;;;;;;;;;;;;;;;4993601;28;19928;-64
2022/08/26 10:25:07;;;;;;;;;;;;;;;;;;4992952;28;20049;-64
2022/08/26 10:27:33;;;;;;;;;;;;;;;;;;4975815;28;20371;-64
2022/08/26 10:29:58;;;;;;;;;;;;;;;;;;4993853;28;19913;-64
2022/08/26 10:32:23;;;;;;;;;;;;;;;;;;4999856;28;19921;-64
2022/08/26 10:34:48;;;;;;;;;;;;;;;;;;4976495;28;19961;-65
2022/08/26 10:37:13;;;;;;;;;;;;;;;;;;4974980;28;20002;-65
2022/08/26 10:39:38;;;;;;;;;;;;;;;;;;4990028;28;19918;-65
2022/08/26 10:42:03;;;;;;;;;;;;;;;;;;4975729;28;20000;-64
2022/08/26 10:44:29;;;;;;;;;;;;;;;;;;4990430;28;19925;-64
2022/08/26 10:46:54;;;;;;;;;;;;;;;;;;4989065;28;19921;-64
2022/08/26 10:49:19;;;;;;;;;;;;;;;;;;4982331;28;19910;-65
2022/08/26 10:51:45;;;;;;;;;;;;;;;;;;4986478;28;19921;-65
2022/08/26 10:54:10;;;;;;;;;;;;;;;;;;5004316;28;19921;-64
2022/08/26 10:56:35;;;;;;;;;;;;;;;;;;4993572;28;19910;-64
2022/08/26 10:59:00;;;;;;;;;;;;;;;;;;4993482;28;19936;-63
2022/08/26 11:01:40;;;;;;;;;;;;;;;;;;4989451;28;19964;-64
2022/08/26 11:04:05;;;;;;;;;;;;;;;;;;4975375;28;19948;-64
2022/08/26 11:06:31;;;;;;;;;;;;;;;;;;4972251;28;19961;-65
2022/08/26 11:08:56;;;;;;;;;;;;;;;;;;4985467;28;19968;-65
2022/08/26 11:11:21;;;;;;;;;;;;;;;;;;4993272;28;19913;-65
2022/08/26 11:13:46;;;;;;;;;;;;;;;;;;4990834;28;19925;-64
2022/08/26 11:16:12;;;;;;;;;;;;;;;;;;5011356;28;19921;-65
2022/08/26 11:18:37;;;;;;;;;;;;;;;;;;4994224;28;19918;-65
2022/08/26 11:21:02;;;;;;;;;;;;;;;;;;5012044;28;20000;-65
2022/08/26 11:23:27;;;;;;;;;;;;;;;;;;5012374;28;19932;-63
2022/08/26 11:25:52;;;;;;;;;;;;;;;;;;5011230;28;19921;-65
2022/08/26 11:28:17;;;;;;;;;;;;;;;;;;4994508;28;20350;-64
2022/08/26 11:30:42;;;;;;;;;;;;;;;;;;5014839;28;19917;-64
2022/08/26 11:33:08;;;;;;;;;;;;;;;;;;5012739;28;19913;-65
2022/08/26 11:35:33;;;;;;;;;;;;;;;;;;5012730;28;20003;-64
2022/08/26 11:37:58;;;;;;;;;;;;;;;;;;4996700;28;19918;-64
2022/08/26 11:40:23;;;;;;;;;;;;;;;;;;5003350;28;19955;-64
2022/08/26 11:42:49;;;;;;;;;;;;;;;;;;4993064;28;19911;-65
2022/08/26 11:45:14;;;;;;;;;;;;;;;;;;4984842;28;19914;-65
2022/08/26 11:47:39;;;;;;;;;;;;;;;;;;5007973;28;20025;-65
2022/08/26 11:50:04;;;;;;;;;;;;;;;;;;4998018;28;19913;-64
2022/08/26 11:52:30;;;;;;;;;;;;;;;;;;5016215;28;19963;-66
2022/08/26 11:54:55;;;;;;;;;;;;;;;;;;4995022;28;19909;-64
2022/08/26 11:57:20;;;;;;;;;;;;;;;;;;4994868;28;19922;-63
2022/08/26 11:59:45;;;;;;;;;;;;;;;;;;5011777;28;19920;-64
2022/08/26 12:02:11;;;;;;;;;;;;;;;;;;4994716;28;20381;-64
2022/08/26 12:04:36;;;;;;;;;;;;;;;;;;5012488;28;19909;-64
2022/08/26 12:07:01;;;;;;;;;;;;;;;;;;5012399;28;19910;-64
2022/08/26 12:09:26;;;;;;;;;;;;;;;;;;5009134;28;19921;-64
2022/08/26 12:11:52;;;;;;;;;;;;;;;;;;5011442;28;19914;-66
2022/08/26 12:14:18;;;;;;;;;;;;;;;;;;4988224;28;19922;-64
2022/08/26 12:16:43;;;;;;;;;;;;;;;;;;4970924;28;19920;-66
2022/08/26 12:19:08;;;;;;;;;;;;;;;;;;4991243;28;20366;-64
2022/08/26 12:21:33;;;;;;;;;;;;;;;;;;5012143;28;20361;-64
2022/08/26 12:23:58;;;;;;;;;;;;;;;;;;4979501;28;19910;-64
2022/08/26 12:26:23;;;;;;;;;;;;;;;;;;4994459;28;19964;-65
2022/08/26 12:28:48;;;;;;;;;;;;;;;;;;4994632;28;19914;-65
2022/08/26 12:31:14;;;;;;;;;;;;;;;;;;5001052;28;19913;-65
2022/08/26 12:33:39;;;;;;;;;;;;;;;;;;4977840;28;19924;-64
2022/08/26 12:36:04;;;;;;;;;;;;;;;;;;4978784;28;19910;-64
2022/08/26 12:38:29;;;;;;;;;;;;;;;;;;4995281;28;20362;-65
2022/08/26 12:40:55;;;;;;;;;;;;;;;;;;4989285;28;20358;-65
2022/08/26 12:43:20;;;;;;;;;;;;;;;;;;4995647;28;20161;-65
2022/08/26 12:45:46;;;;;;;;;;;;;;;;;;4993586;28;19914;-64
2022/08/26 12:48:12;;;;;;;;;;;;;;;;;;4978833;28;19914;-65
2022/08/26 12:50:37;;;;;;;;;;;;;;;;;;4995192;28;20381;-65
2022/08/26 12:53:02;;;;;;;;;;;;;;;;;;4976388;28;19948;-65
2022/08/26 12:55:27;;;;;;;;;;;;;;;;;;4978326;28;19914;-65
2022/08/26 12:57:53;;;;;;;;;;;;;;;;;;4995835;28;20004;-65
2022/08/26 13:00:18;;;;;;;;;;;;;;;;;;4980539;28;20264;-65
2022/08/26 13:02:43;;;;;;;;;;;;;;;;;;4998368;28;20432;-64
2022/08/26 13:05:08;;;;;;;;;;;;;;;;;;5015390;28;19909;-65
2022/08/26 13:07:33;;;;;;;;;;;;;;;;;;5014490;28;19909;-65
2022/08/26 13:09:59;;;;;;;;;;;;;;;;;;4989006;28;20354;-64
2022/08/26 13:12:24;;;;;;;;;;;;;;;;;;4995631;28;19921;-66
2022/08/26 13:14:50;;;;;;;;;;;;;;;;;;5008241;28;19925;-65
2022/08/26 13:17:15;;;;;;;;;;;;;;;;;;5011953;28;20427;-65
2022/08/26 13:19:40;;;;;;;;;;;;;;;;;;4983100;28;19914;-65
2022/08/26 13:22:06;;;;;;;;;;;;;;;;;;4993637;28;20389;-64
2022/08/26 13:24:31;;;;;;;;;;;;;;;;;;5012647;28;19914;-65
2022/08/26 13:26:56;;;;;;;;;;;;;;;;;;5014916;28;19981;-64
2022/08/26 13:29:21;;;;;;;;;;;;;;;;;;5014758;28;19918;-65
2022/08/26 13:31:46;;;;;;;;;;;;;;;;;;4996185;28;19913;-64
2022/08/26 13:34:12;;;;;;;;;;;;;;;;;;5016228;28;20405;-64
2022/08/26 13:36:37;;;;;;;;;;;;;;;;;;5029915;28;19921;-63
2022/08/26 13:39:02;;;;;;;;;;;;;;;;;;5032950;28;19913;-64
2022/08/26 13:41:27;;;;;;;;;;;;;;;;;;5023812;28;20449;-64
2022/08/26 13:43:52;;;;;;;;;;;;;;;;;;4994179;28;19914;-63
2022/08/26 13:46:19;;;;;;;;;;;;;;;;;;5008149;28;20255;-64
2022/08/26 13:48:44;;;;;;;;;;;;;;;;;;4996745;28;19910;-64
2022/08/26 13:51:09;;;;;;;;;;;;;;;;;;4996250;28;19914;-63
2022/08/26 13:53:34;;;;;;;;;;;;;;;;;;5011692;28;19968;-64
2022/08/26 13:55:59;;;;;;;;;;;;;;;;;;5001342;28;19913;-64
2022/08/26 13:58:25;;;;;;;;;;;;;;;;;;5033896;28;19909;-65
2022/08/26 14:00:50;;;;;;;;;;;;;;;;;;5032467;28;19959;-65
2022/08/26 14:03:15;;;;;;;;;;;;;;;;;;5014014;28;19975;-65
2022/08/26 14:05:40;;;;;;;;;;;;;;;;;;4994662;28;19936;-63
2022/08/26 14:08:05;;;;;;;;;;;;;;;;;;5013792;28;19910;-64
2022/08/26 14:10:30;;;;;;;;;;;;;;;;;;5013330;28;19925;-66
2022/08/26 14:12:56;;;;;;;;;;;;;;;;;;5021156;28;19917;-67
2022/08/26 14:15:21;;;;;;;;;;;;;;;;;;5011156;28;19921;-67
2022/08/26 14:17:46;;;;;;;;;;;;;;;;;;4985680;28;19960;-65
2022/08/26 14:20:11;;;;;;;;;;;;;;;;;;4999822;28;19910;-65
2022/08/26 14:22:37;;;;;;;;;;;;;;;;;;4997394;28;19991;-64
2022/08/26 14:25:02;;;;;;;;;;;;;;;;;;5015916;28;19909;-64
2022/08/26 14:27:28;;;;;;;;;;;;;;;;;;5012787;28;20436;-64
2022/08/26 14:29:53;;;;;;;;;;;;;;;;;;5012553;28;20705;-64
2022/08/26 14:32:19;;;;;;;;;;;;;;;;;;4995460;28;19919;-65
2022/08/26 14:34:44;;;;;;;;;;;;;;;;;;5022558;28;19917;-64
2022/08/26 14:37:09;;;;;;;;;;;;;;;;;;5012996;28;19909;-64
2022/08/26 14:39:35;;;;;;;;;;;;;;;;;;5011648;28;20000;-65
2022/08/26 14:42:01;;;;;;;;;;;;;;;;;;5011677;28;19917;-65
2022/08/26 14:44:26;;;;;;;;;;;;;;;;;;5009205;28;19913;-65
2022/08/26 14:46:51;;;;;;;;;;;;;;;;;;5012946;28;20266;-64
2022/08/26 14:49:17;;;;;;;;;;;;;;;;;;4995431;28;19964;-65
2022/08/26 14:51:43;;;;;;;;;;;;;;;;;;4996912;28;19936;-66
2022/08/26 14:54:11;;;;;;;;;;;;;;;;;;5011618;28;20421;-64
2022/08/26 14:56:36;;;;;;;;;;;;;;;;;;5020359;28;20008;-65
2022/08/26 14:59:01;;;;;;;;;;;;;;;;;;5029696;28;19964;-64
2022/08/26 15:01:26;;;;;;;;;;;;;;;;;;4995122;28;19909;-64
2022/08/26 15:03:51;;;;;;;;;;;;;;;;;;4994539;28;19992;-65
2022/08/26 15:06:16;;;;;;;;;;;;;;;;;;5019300;28;20316;-65
2022/08/26 15:08:42;;;;;;;;;;;;;;;;;;5001582;28;19913;-64
2022/08/26 15:11:07;;;;;;;;;;;;;;;;;;5012827;28;19996;-64
2022/08/26 15:13:32;;;;;;;;;;;;;;;;;;5010688;28;19914;-65
2022/08/26 15:15:57;;;;;;;;;;;;;;;;;;5006271;28;20016;-65
2022/08/26 15:18:22;;;;;;;;;;;;;;;;;;4994929;28;19910;-65
2022/08/26 15:20:47;;;;;;;;;;;;;;;;;;5012445;28;19910;-64
2022/08/26 15:23:12;;;;;;;;;;;;;;;;;;5012278;28;19910;-64
2022/08/26 15:25:38;;;;;;;;;;;;;;;;;;4998493;28;19922;-64
2022/08/26 15:28:03;;;;;;;;;;;;;;;;;;4997396;28;19953;-64
2022/08/26 15:30:28;;;;;;;;;;;;;;;;;;5012558;28;20025;-65
2022/08/26 15:32:53;;;;;;;;;;;;;;;;;;4993525;28;19914;-64
2022/08/26 15:35:19;;;;;;;;;;;;;;;;;;4993916;28;20391;-64
2022/08/26 15:37:44;;;;;;;;;;;;;;;;;;5009894;28;19949;-65
2022/08/26 15:40:09;;;;;;;;;;;;;;;;;;5011961;28;19909;-65
2022/08/26 15:42:34;;;;;;;;;;;;;;;;;;4995059;28;19929;-65
2022/08/26 15:45:00;;;;;;;;;;;;;;;;;;5008576;28;19924;-65
2022/08/26 15:47:25;;;;;;;;;;;;;;;;;;4993633;28;19941;-65
2022/08/26 15:49:50;;;;;;;;;;;;;;;;;;5012044;28;19980;-65
2022/08/26 15:52:15;;;;;;;;;;;;;;;;;;4994637;28;19913;-65
2022/08/26 15:54:40;;;;;;;;;;;;;;;;;;5011398;28;19922;-65
2022/08/26 15:57:06;;;;;;;;;;;;;;;;;;5012865;28;20408;-65
2022/08/26 15:59:31;;;;;;;;;;;;;;;;;;5009729;28;20374;-64
2022/08/26 16:01:56;;;;;;;;;;;;;;;;;;4997316;28;20059;-64
2022/08/26 16:04:21;;;;;;;;;;;;;;;;;;5016424;28;19910;-64
2022/08/26 16:06:48;;;;;;;;;;;;;;;;;;5015159;28;19921;-64
2022/08/26 16:09:13;;;;;;;;;;;;;;;;;;5013452;28;20018;-64
2022/08/26 16:11:39;;;;;;;;;;;;;;;;;;5016240;28;19945;-64
2022/08/26 16:14:04;;;;;;;;;;;;;;;;;;5013475;28;20409;-63
2022/08/26 16:16:29;;;;;;;;;;;;;;;;;;5000896;28;20285;-64
2022/08/26 16:18:54;;;;;;;;;;;;;;;;;;5011881;28;20424;-64
2022/08/26 16:21:19;;;;;;;;;;;;;;;;;;5015679;28;20513;-65
2022/08/26 16:23:44;;;;;;;;;;;;;;;;;;5015273;28;19916;-64
2022/08/26 16:26:10;;;;;;;;;;;;;;;;;;5015596;28;19972;-64
2022/08/26 16:28:35;;;;;;;;;;;;;;;;;;5028937;28;19909;-65
2022/08/26 16:31:00;;;;;;;;;;;;;;;;;;5016895;28;20083;-65
2022/08/26 16:33:25;;;;;;;;;;;;;;;;;;5026821;28;20013;-65
2022/08/26 16:35:51;;;;;;;;;;;;;;;;;;5014623;28;19917;-65
2022/08/26 16:38:16;;;;;;;;;;;;;;;;;;5015173;28;19916;-63
2022/08/26 16:40:41;;;;;;;;;;;;;;;;;;5013106;28;19914;-65
2022/08/26 16:43:06;;;;;;;;;;;;;;;;;;5015805;28;19953;-64
2022/08/26 16:45:31;;;;;;;;;;;;;;;;;;5011012;28;20004;-64
2022/08/26 16:47:57;;;;;;;;;;;;;;;;;;5009030;28;19914;-64
2022/08/26 16:50:23;;;;;;;;;;;;;;;;;;5012011;28;19952;-64
2022/08/26 16:52:48;;;;;;;;;;;;;;;;;;5014492;28;20415;-64
2022/08/26 16:55:13;;;;;;;;;;;;;;;;;;5019030;28;19921;-64
2022/08/26 16:57:38;;;;;;;;;;;;;;;;;;5015440;28;19952;-64
2022/08/26 17:00:03;;;;;;;;;;;;;;;;;;5015328;28;19967;-64
2022/08/26 17:02:28;;;;;;;;;;;;;;;;;;4997003;28;19968;-64
2022/08/26 17:04:53;;;;;;;;;;;;;;;;;;5013934;28;19913;-64
2022/08/26 17:07:19;;;;;;;;;;;;;;;;;;5015273;28;19917;-64